Time;durP1;ratioP1;P1;durP2;ratioP2;P2;SDS_P1;SDS_P2;PMS_P1;PMS_P2;Temp;Humidity;BMP_temperature;BMP_pressure;BME280_temperature;BME280_humidity;BME280_pressure;Samples;Min_cycle;Max_cycle;Signal;HPM_P1;HPM_P2
2022/06/14 00:00:58;;;;;;;37.97;25.85;;;;;;;17.85;100.00;98904.50;5121898;27;20042;-39
2022/06/14 00:03:30;;;;;;;37.22;25.70;;;;;;;17.83;100.00;98915.13;5122912;27;20060;-39
2022/06/14 00:06:00;;;;;;;35.38;24.00;;;;;;;17.83;100.00;98907.22;5114940;27;20043;-39
2022/06/14 00:08:27;;;;;;;35.10;25.13;;;;;;;17.83;100.00;98914.28;5113482;27;20032;-39
2022/06/14 00:10:54;;;;;;;32.95;23.80;;;;;;;17.82;100.00;98913.44;5116285;27;20063;-39
2022/06/14 00:13:21;;;;;;;33.50;24.67;;;;;;;17.81;100.00;98908.28;5121967;27;20165;-39
2022/06/14 00:15:47;;;;;;;35.47;24.83;;;;;;;17.81;100.00;98906.50;5124862;27;20142;-40
2022/06/14 00:18:14;;;;;;;34.60;24.65;;;;;;;17.83;100.00;98909.03;5129383;27;20519;-39
2022/06/14 00:20:40;;;;;;;32.78;24.52;;;;;;;17.83;100.00;98909.03;5114175;27;20575;-39
2022/06/14 00:23:06;;;;;;;37.53;24.17;;;;;;;17.84;100.00;98908.91;5122282;27;20061;-40
2022/06/14 00:25:37;;;;;;;34.47;24.73;;;;;;;17.85;100.00;98904.50;5123328;27;20043;-39
2022/06/14 00:28:05;;;;;;;32.90;23.83;;;;;;;17.85;100.00;98915.00;5113450;27;20035;-39
2022/06/14 00:30:31;;;;;;;34.08;23.73;;;;;;;17.83;100.00;98909.88;5129820;27;20051;-39
2022/06/14 00:32:57;;;;;;;33.55;24.48;;;;;;;17.86;100.00;98908.78;5127134;27;20546;-39
2022/06/14 00:35:24;;;;;;;36.58;25.08;;;;;;;17.86;100.00;98908.78;5124293;27;20422;-39
2022/06/14 00:37:50;;;;;;;33.53;24.02;;;;;;;17.73;100.00;98885.22;5118844;27;20038;-40
2022/06/14 00:40:20;;;;;;;34.65;24.73;;;;;;;17.88;100.00;98915.59;5124911;27;20039;-39
2022/06/14 00:42:45;;;;;;;35.50;25.67;;;;;;;17.86;100.00;98917.50;5124638;27;20109;-39
2022/06/14 00:45:12;;;;;;;37.22;25.55;;;;;;;17.85;100.00;98905.31;5122937;27;20538;-39
2022/06/14 00:47:49;;;;;;;41.28;24.50;;;;;;;17.83;100.00;98899.34;5129927;27;20092;-44
2022/06/14 00:50:22;;;;;;;37.22;24.45;;;;;;;17.82;100.00;98904.72;5118604;27;20054;-39
2022/06/14 00:53:04;;;;;;;33.22;25.15;;;;;;;17.78;100.00;98907.59;5128772;27;20546;-39
2022/06/14 00:55:35;;;;;;;35.92;24.70;;;;;;;17.77;100.00;98898.03;5118797;27;20040;-41
2022/06/14 00:58:07;;;;;;;36.58;24.60;;;;;;;17.75;100.00;98894.66;5113608;27;20063;-39
2022/06/14 01:00:40;;;;;;;35.45;24.90;;;;;;;17.74;100.00;98903.50;5116028;27;20427;-39
2022/06/14 01:03:13;;;;;;;36.28;25.55;;;;;;;17.67;100.00;98888.31;5132041;27;20047;-38
2022/06/14 01:06:05;;;;;;;38.22;25.83;;;;;;;17.72;100.00;98904.59;5127499;27;20074;-41
2022/06/14 01:08:39;;;;;;;34.40;25.08;;;;;;;17.72;100.00;98901.94;5111505;27;20138;-39
2022/06/14 01:11:07;;;;;;;36.88;25.05;;;;;;;17.72;100.00;98908.06;5129876;27;20038;-39
2022/06/14 01:13:34;;;;;;;35.75;25.05;;;;;;;17.59;100.00;98885.38;5122161;27;20039;-39
2022/06/14 01:16:00;;;;;;;32.38;25.92;;;;;;;17.69;100.00;98903.00;5113423;27;20111;-39
2022/06/14 01:18:27;;;;;;;36.35;25.30;;;;;;;17.70;100.00;98907.31;5120929;27;20126;-39
2022/06/14 01:20:53;;;;;;;33.95;24.92;;;;;;;17.62;100.00;98893.94;5108062;28;20559;-38
2022/06/14 01:23:19;;;;;;;32.15;23.75;;;;;;;17.64;100.00;98896.41;5126918;27;20043;-39
2022/06/14 01:26:06;;;;;;;38.83;24.80;;;;;;;17.73;100.00;98915.00;5115008;27;20039;-40
2022/06/14 01:28:32;;;;;;;34.78;25.15;;;;;;;17.74;100.00;98914.00;5118125;27;20146;-40
2022/06/14 01:30:59;;;;;;;40.20;25.27;;;;;;;17.74;100.00;98915.81;5128920;27;20035;-39
2022/06/14 01:33:33;;;;;;;38.33;24.15;;;;;;;17.68;100.00;98905.78;5129464;27;20399;-39
2022/06/14 01:36:11;;;;;;;35.88;24.98;;;;;;;17.75;100.00;98915.69;5116326;27;20431;-39
2022/06/14 01:38:38;;;;;;;43.20;25.45;;;;;;;17.77;100.00;98916.44;5130830;27;20457;-39
2022/06/14 01:41:45;;;;;;;38.17;25.13;;;;;;;17.78;100.00;98917.25;5104805;28;20134;-38
2022/06/14 01:44:34;;;;;;;38.63;25.02;;;;;;;17.81;100.00;98921.44;5048127;28;20045;-38
2022/06/14 01:47:00;;;;;;;45.75;25.65;;;;;;;17.82;100.00;98926.59;5050314;28;20596;-39
2022/06/14 01:53:14;;;;;;;39.65;25.75;;;;;;;17.85;100.00;98922.91;5127621;27;20031;-39
2022/06/14 01:55:58;;;;;;;37.95;25.55;;;;;;;17.84;100.00;98924.69;5126992;27;20039;-38
2022/06/14 01:58:45;;;;;;;32.88;25.75;;;;;;;17.87;100.00;98927.06;5112564;27;20040;-39
2022/06/14 02:01:27;;;;;;;37.75;25.35;;;;;;;17.79;100.00;98918.94;5111537;27;20560;-39
2022/06/14 02:07:00;;;;;;;41.67;28.75;;;;;;;17.89;100.00;98933.06;5124875;27;20088;-39
2022/06/14 02:09:47;;;;;;;43.15;29.55;;;;;;;17.90;100.00;98931.28;5130688;27;20055;-39
2022/06/14 02:12:18;;;;;;;38.20;28.52;;;;;;;17.92;100.00;98924.94;5127596;27;20035;-38
2022/06/14 02:15:14;;;;;;;45.08;29.73;;;;;;;17.88;100.00;98925.28;5097005;27;20046;-39
2022/06/14 02:17:51;;;;;;;43.83;30.50;;;;;;;17.97;100.00;98932.47;5105999;27;20549;-39
2022/06/14 02:20:20;;;;;;;42.40;30.25;;;;;;;17.99;100.00;98927.94;5094894;28;20047;-39
2022/06/14 02:22:55;;;;;;;;;;;;;;;18.03;100.00;98934.63;5122419;27;20069;-40
2022/06/14 02:25:27;;;;;;;42.25;28.77;;;;;;;18.08;100.00;98927.22;5125398;27;20317;-38
2022/06/14 02:28:21;;;;;;;39.08;28.92;;;;;;;18.14;100.00;98919.69;5095994;28;20043;-39
2022/06/14 02:30:53;;;;;;;36.00;27.45;;;;;;;18.20;100.00;98928.91;5111657;27;20063;-39
2022/06/14 02:33:28;;;;;;;35.45;27.58;;;;;;;18.27;100.00;98930.09;5119193;27;20039;-40
2022/06/14 02:35:58;;;;;;;40.78;27.73;;;;;;;18.34;100.00;98927.84;5125528;27;20043;-41
2022/06/14 02:38:33;;;;;;;36.80;26.83;;;;;;;18.41;100.00;98934.31;5123723;27;20121;-39
2022/06/14 02:41:06;;;;;;;37.25;27.25;;;;;;;18.50;100.00;98930.94;5129024;27;20534;-39
2022/06/14 02:43:36;;;;;;;33.45;26.38;;;;;;;18.48;100.00;98915.25;5115931;27;20050;-40
2022/06/14 02:46:11;;;;;;;34.03;27.17;;;;;;;18.57;100.00;98919.00;5128888;27;20031;-39
2022/06/14 02:49:00;;;;;;;34.60;26.10;;;;;;;18.58;100.00;98907.50;5113709;28;20536;-40
2022/06/14 02:51:34;;;;;;;35.72;26.35;;;;;;;18.68;100.00;98929.53;5127128;27;20035;-40
2022/06/14 02:54:21;;;;;;;37.00;27.02;;;;;;;18.66;100.00;98920.91;5123816;28;20039;-39
2022/06/14 02:56:57;;;;;;;39.25;26.77;;;;;;;18.64;100.00;98920.19;5113386;28;20426;-39
2022/06/14 02:59:28;;;;;;;36.60;25.50;;;;;;;18.63;100.00;98921.97;5112729;28;20100;-39
2022/06/14 03:02:01;;;;;;;32.67;24.80;;;;;;;18.49;100.00;98897.66;5120163;27;20031;-39
2022/06/14 03:04:40;;;;;;;39.17;27.27;;;;;;;18.63;100.00;98921.16;5127269;28;20452;-39
2022/06/14 03:07:11;;;;;;;30.60;25.33;;;;;;;18.63;100.00;98916.69;5089923;28;20043;-39
2022/06/14 03:09:38;;;;;;;38.30;26.23;;;;;;;18.66;100.00;98925.34;5123400;28;20043;-40
2022/06/14 03:12:31;;;;;;;35.85;26.38;;;;;;;18.67;100.00;98921.75;5112972;28;20590;-39
2022/06/14 03:15:06;;;;;;;37.10;24.95;;;;;;;18.70;100.00;98921.50;5110905;28;20078;-39
2022/06/14 03:17:35;;;;;;;38.70;26.88;;;;;;;18.77;100.00;98923.53;5117126;28;20126;-40
2022/06/14 03:20:19;;;;;;;36.70;26.35;;;;;;;18.82;100.00;98926.63;5122661;28;20425;-40
2022/06/14 03:22:49;;;;;;;35.70;26.77;;;;;;;18.91;100.00;98919.78;5122263;28;20043;-40
2022/06/14 03:25:21;;;;;;;31.92;24.65;;;;;;;18.96;100.00;98926.34;5111505;28;20108;-39
2022/06/14 03:28:08;;;;;;;32.85;24.90;;;;;;;19.05;100.00;98933.50;5110205;28;20035;-39
2022/06/14 03:30:36;;;;;;;31.02;23.92;;;;;;;19.16;100.00;98934.41;5111541;28;20035;-39
2022/06/14 03:33:11;;;;;;;30.77;25.20;;;;;;;19.23;100.00;98920.63;5118003;27;20039;-40
2022/06/14 03:35:41;;;;;;;28.92;24.75;;;;;;;19.38;100.00;98919.38;5127360;27;20049;-39
2022/06/14 03:38:26;;;;;;;32.17;24.52;;;;;;;19.49;100.00;98920.31;5113368;27;20290;-39
2022/06/14 03:40:51;;;;;;;33.53;25.83;;;;;;;19.59;100.00;98916.78;5128250;27;20108;-39
2022/06/14 03:43:18;;;;;;;41.88;25.70;;;;;;;19.70;100.00;98919.38;5119416;27;20044;-39
2022/06/14 03:45:57;;;;;;;34.08;24.02;;;;;;;19.83;100.00;98924.47;5118608;27;20031;-40
2022/06/14 03:48:23;;;;;;;33.60;23.75;;;;;;;19.93;100.00;98922.72;5114790;27;20096;-40
2022/06/14 03:51:10;;;;;;;31.10;24.33;;;;;;;20.05;100.00;98915.53;5119523;27;20534;-40
2022/06/14 03:53:45;;;;;;;34.30;24.50;;;;;;;20.14;100.00;98917.41;5130288;27;20156;-40
2022/06/14 03:56:53;;;;;;;34.92;24.33;;;;;;;20.24;100.00;98918.28;5127804;27;20042;-39
2022/06/14 03:59:53;;;;;;;33.73;24.67;;;;;;;20.33;100.00;98914.88;5105348;27;20478;-40
2022/06/14 04:02:19;;;;;;;35.90;25.25;;;;;;;20.40;100.00;98923.94;5112719;27;20039;-39
2022/06/14 04:04:54;;;;;;;32.88;26.30;;;;;;;20.39;100.00;98914.34;5113704;28;20035;-39
2022/06/14 04:07:29;;;;;;;34.83;25.83;;;;;;;20.38;100.00;98925.88;5115520;27;20457;-40
2022/06/14 04:10:13;;;;;;;36.97;25.52;;;;;;;20.44;100.00;98933.25;5116659;27;20392;-39
2022/06/14 04:13:00;;;;;;;33.33;25.25;;;;;;;20.48;100.00;98939.94;5113779;27;20068;-39
2022/06/14 04:15:45;;;;;;;37.10;24.88;;;;;;;20.49;100.00;98933.69;5132115;27;20472;-39
2022/06/14 04:18:34;;;;;;;35.83;26.45;;;;;;;20.49;100.00;98938.16;5115618;27;20434;-40
2022/06/14 04:21:21;;;;;;;35.03;25.65;;;;;;;20.48;100.00;98931.19;5123059;27;20175;-40
2022/06/14 04:23:59;;;;;;;32.08;25.30;;;;;;;20.45;100.00;98926.19;5117394;27;20044;-40
2022/06/14 04:26:37;;;;;;;34.70;26.73;;;;;;;20.44;100.00;98922.69;5118035;27;20058;-39
2022/06/14 04:29:27;;;;;;;36.80;26.48;;;;;;;20.45;100.00;98923.53;5097288;27;20699;-39
2022/06/14 04:32:12;;;;;;;33.67;25.33;;;;;;;20.47;100.00;98918.94;5125686;27;20039;-40
2022/06/14 04:34:43;;;;;;;33.78;25.17;;;;;;;20.53;100.00;98921.06;5131768;27;20047;-39
2022/06/14 04:37:13;;;;;;;32.88;25.88;;;;;;;20.61;100.00;98921.25;5132294;27;20050;-39
2022/06/14 04:39:43;;;;;;;33.05;25.67;;;;;;;20.68;100.00;98920.53;5131893;27;20529;-40
2022/06/14 04:42:26;;;;;;;36.83;25.77;;;;;;;20.66;100.00;98916.38;5132085;27;20055;-39
2022/06/14 04:45:02;;;;;;;35.00;25.60;;;;;;;20.59;100.00;98900.22;5113620;27;20900;-40
2022/06/14 04:47:36;;;;;;;31.58;24.27;;;;;;;20.67;100.00;98896.94;5131814;27;20760;-39
2022/06/14 04:50:06;;;;;;;29.38;23.92;;;;;;;20.90;100.00;98922.13;5128311;27;20047;-39
2022/06/14 04:52:35;;;;;;;30.52;24.25;;;;;;;21.01;100.00;98913.25;5114377;27;20130;-39
2022/06/14 04:55:07;;;;;;;29.33;23.07;;;;;;;21.08;100.00;98909.09;5122386;27;20530;-39
2022/06/14 04:57:43;;;;;;;32.90;24.70;;;;;;;21.20;100.00;98909.84;5112725;28;20422;-40
2022/06/14 05:00:18;;;;;;;31.75;23.40;;;;;;;21.31;100.00;98909.69;5118103;27;20071;-40
2022/06/14 05:03:16;;;;;;;27.83;21.05;;;;;;;21.38;100.00;98910.78;5123542;27;20615;-40
2022/06/14 05:05:50;;;;;;;32.53;23.70;;;;;;;21.39;100.00;98897.44;5108421;28;20057;-39
2022/06/14 05:08:25;;;;;;;24.25;19.85;;;;;;;21.54;98.34;98908.44;5111331;28;20035;-40
2022/06/14 05:10:53;;;;;;;25.23;20.13;;;;;;;21.68;96.85;98923.03;5111203;27;20518;-39
2022/06/14 05:13:44;;;;;;;25.42;21.67;;;;;;;21.81;94.91;98908.53;5123339;27;20071;-39
2022/06/14 05:16:18;;;;;;;29.58;21.67;;;;;;;21.95;92.42;98910.75;5122329;27;20126;-39
2022/06/14 05:19:02;;;;;;;27.10;20.08;;;;;;;22.10;91.91;98911.13;5124991;27;20036;-39
2022/06/14 05:21:34;;;;;;;23.85;18.88;;;;;;;22.23;89.84;98903.72;5126899;27;20214;-39
2022/06/14 05:24:00;;;;;;;24.35;18.83;;;;;;;22.33;87.83;98899.19;5131945;27;20039;-39
2022/06/14 05:26:29;;;;;;;22.85;18.08;;;;;;;22.46;85.66;98890.06;5109948;27;20035;-39
2022/06/14 05:29:18;;;;;;;20.38;16.70;;;;;;;22.60;84.00;98893.09;5131109;27;20242;-40
2022/06/14 05:32:00;;;;;;;20.35;16.08;;;;;;;22.77;81.62;98899.41;5128882;27;20088;-39
2022/06/14 05:35:03;;;;;;;20.55;16.67;;;;;;;22.89;80.38;98897.38;5120395;27;20049;-39
2022/06/14 05:37:52;;;;;;;20.40;16.08;;;;;;;23.07;79.36;98899.09;5122052;27;20046;-39
2022/06/14 05:40:36;;;;;;;19.88;15.35;;;;;;;23.29;77.53;98891.66;5119842;27;20043;-39
2022/06/14 05:43:14;;;;;;;28.05;20.90;;;;;;;23.54;75.85;98901.53;5120844;27;20068;-39
2022/06/14 05:45:47;;;;;;;27.08;18.85;;;;;;;23.61;73.10;98886.63;5108438;28;20039;-39
2022/06/14 05:48:19;;;;;;;23.27;19.42;;;;;;;23.84;70.78;98887.81;5109584;28;20055;-39
2022/06/14 05:50:47;;;;;;;25.60;17.65;;;;;;;24.06;70.27;98902.38;5123268;27;20053;-39
2022/06/14 05:53:19;;;;;;;20.67;16.92;;;;;;;24.29;69.73;98895.56;5130439;27;20035;-39
2022/06/14 05:55:55;;;;;;;21.67;16.88;;;;;;;24.29;68.77;98892.06;5128940;27;20035;-39
2022/06/14 05:58:32;;;;;;;26.35;17.67;;;;;;;24.37;68.88;98892.13;5129386;27;20054;-39
2022/06/14 06:01:04;;;;;;;21.92;17.55;;;;;;;24.45;68.26;98886.81;5113428;27;20482;-39
2022/06/14 06:03:43;;;;;;;23.20;17.42;;;;;;;24.60;67.88;98881.75;5130459;27;20049;-39
2022/06/14 06:06:13;;;;;;;21.20;17.27;;;;;;;24.60;67.46;98885.22;5131467;27;20078;-38
2022/06/14 06:08:57;;;;;;;19.38;16.70;;;;;;;24.63;68.00;98879.59;5130442;27;20039;-39
2022/06/14 06:11:32;;;;;;;22.13;17.90;;;;;;;24.76;67.15;98871.97;5123442;27;20088;-39
2022/06/14 06:14:05;;;;;;;24.80;19.73;;;;;;;24.88;66.51;98875.19;5109941;28;20047;-38
2022/06/14 06:19:19;;;;;;;18.67;15.68;;;;;;;25.18;65.21;98873.75;5110834;28;20444;-39
2022/06/14 06:21:53;;;;;;;23.75;18.33;;;;;;;25.30;64.61;98875.94;5109398;28;20049;-38
2022/06/14 06:24:51;;;;;;;22.02;17.27;;;;;;;25.57;63.30;98877.47;5109607;28;20139;-38
2022/06/14 06:27:18;;;;;;;24.10;18.15;;;;;;;25.83;62.13;98871.94;5111013;28;20043;-40
2022/06/14 06:30:02;;;;;;;21.77;16.98;;;;;;;25.99;60.96;98863.91;5109657;28;20378;-39
2022/06/14 06:32:31;;;;;;;24.92;17.65;;;;;;;26.30;60.29;98860.50;5106742;28;20108;-39
2022/06/14 06:34:58;;;;;;;19.17;16.73;;;;;;;26.43;59.79;98863.47;5110627;28;20509;-38
2022/06/14 06:37:36;;;;;;;21.35;17.77;;;;;;;26.59;59.61;98870.56;5109642;28;20043;-39
2022/06/14 06:40:10;;;;;;;23.27;17.55;;;;;;;26.70;59.02;98862.13;5109628;28;20070;-38
2022/06/14 06:42:58;;;;;;;23.33;17.52;;;;;;;26.73;59.14;98859.97;5093355;27;20487;-39
2022/06/14 06:45:32;;;;;;;22.70;17.80;;;;;;;27.06;58.13;98865.16;5129833;27;20106;-39
2022/06/14 06:48:09;;;;;;;19.77;16.85;;;;;;;27.98;55.73;98862.19;5128713;27;20130;-38
2022/06/14 06:50:44;;;;;;;19.90;16.52;;;;;;;28.83;52.75;98859.84;5130522;27;20039;-39
2022/06/14 06:53:17;;;;;;;25.58;19.33;;;;;;;28.71;52.52;98855.13;5128616;27;20043;-38
2022/06/14 06:56:16;;;;;;;19.23;17.20;;;;;;;28.21;53.77;98854.91;5130980;27;20047;-38
2022/06/14 06:58:45;;;;;;;25.52;17.27;;;;;;;28.25;53.55;98860.75;5129599;28;20030;-38
2022/06/14 07:01:22;;;;;;;19.00;16.83;;;;;;;29.52;50.37;98849.38;5129645;27;20122;-39
2022/06/14 07:03:51;;;;;;;23.08;15.68;;;;;;;30.37;47.86;98845.63;5126435;28;20045;-38
2022/06/14 07:06:24;;;;;;;20.08;15.10;;;;;;;29.88;48.89;98849.28;5127913;27;20057;-38
2022/06/14 07:08:55;;;;;;;20.17;13.93;;;;;;;30.93;46.31;98843.59;5132398;27;20160;-38
2022/06/14 07:11:25;;;;;;;17.00;14.52;;;;;;;30.79;46.35;98840.03;5130534;27;20091;-38
2022/06/14 07:14:21;;;;;;;19.70;13.52;;;;;;;30.16;48.14;98833.16;5114292;27;20495;-38
2022/06/14 07:16:58;;;;;;;17.08;13.57;;;;;;;29.46;48.90;98837.63;5115983;27;20047;-37
2022/06/14 07:19:51;;;;;;;20.08;13.73;;;;;;;30.30;47.13;98837.56;5117068;27;20040;-46
2022/06/14 07:22:24;;;;;;;20.95;13.93;;;;;;;30.81;45.83;98831.78;5116601;27;20482;-40
2022/06/14 07:25:08;;;;;;;21.90;14.82;;;;;;;31.12;45.20;98829.41;5133564;27;20073;-39
2022/06/14 07:27:37;;;;;;;19.75;14.13;;;;;;;30.88;45.71;98836.13;5115410;27;20468;-38
2022/06/14 07:30:10;;;;;;;20.02;14.85;;;;;;;29.96;47.61;98835.72;5094892;28;20052;-38
2022/06/14 07:32:42;;;;;;;19.88;15.23;;;;;;;29.21;49.11;98835.50;5117145;27;20126;-39
2022/06/14 07:35:08;;;;;;;21.10;16.73;;;;;;;28.72;49.79;98820.19;5102143;27;20039;-40
2022/06/14 07:37:39;;;;;;;18.63;14.57;;;;;;;30.56;45.93;98827.00;5113260;27;20089;-38
2022/06/14 07:40:17;;;;;;;17.67;15.80;;;;;;;31.35;44.52;98823.66;5131656;27;20035;-38
2022/06/14 07:42:51;;;;;;;15.68;12.43;;;;;;;30.55;45.65;98813.75;5147149;27;20039;-39
2022/06/14 07:45:43;;;;;;;14.68;11.13;;;;;;;29.36;46.55;98806.84;5128882;27;20121;-38
2022/06/14 07:48:18;;;;;;;17.58;12.10;;;;;;;28.89;47.83;98826.16;5120300;27;20422;-40
2022/06/14 07:50:47;;;;;;;13.48;9.18;;;;;;;29.04;46.70;98819.72;5134448;27;20043;-38
2022/06/14 07:53:13;;;;;;;11.40;8.30;;;;;;;30.71;43.56;98819.59;5133304;27;20042;-39
2022/06/14 07:55:43;;;;;;;12.23;6.28;;;;;;;32.50;38.12;98813.09;5133291;27;20035;-37
2022/06/14 07:58:32;;;;;;;9.88;6.10;;;;;;;31.48;37.93;98810.19;5129452;27;20035;-38
2022/06/14 08:01:08;;;;;;;7.18;3.60;;;;;;;30.45;37.18;98811.44;5129438;27;20059;-39
2022/06/14 08:03:54;;;;;;;6.32;3.90;;;;;;;32.30;33.93;98813.16;5113211;28;20044;-38
2022/06/14 08:06:28;;;;;;;8.30;3.93;;;;;;;32.39;33.38;98808.38;5112215;28;20130;-43
2022/06/14 08:09:03;;;;;;;6.70;3.40;;;;;;;33.82;31.47;98812.19;5111756;28;20371;-38
2022/06/14 08:11:37;;;;;;;6.57;3.30;;;;;;;33.77;31.56;98801.25;5119550;27;20065;-39
2022/06/14 08:14:08;;;;;;;4.88;3.40;;;;;;;31.96;33.88;98797.34;5122614;27;20525;-38
2022/06/14 08:16:34;;;;;;;8.82;3.72;;;;;;;30.83;35.89;98779.53;5128956;27;21115;-38
2022/06/14 08:19:06;;;;;;;7.25;3.55;;;;;;;30.54;36.51;98793.31;5119464;27;20036;-39
2022/06/14 08:21:45;;;;;;;8.40;3.28;;;;;;;31.47;33.76;98785.19;5121588;27;20566;-38
2022/06/14 08:24:15;;;;;;;5.63;4.45;;;;;;;32.24;32.42;98795.19;5123232;27;20126;-39
2022/06/14 08:26:49;;;;;;;11.60;4.63;;;;;;;33.67;30.93;98792.81;5131362;27;20057;-39
2022/06/14 08:29:22;;;;;;;5.78;3.72;;;;;;;33.36;31.66;98796.41;5112714;27;20047;-39
2022/06/14 08:31:58;;;;;;;7.05;4.03;;;;;;;31.72;34.53;98793.44;5139743;27;20074;-38
2022/06/14 08:34:57;;;;;;;4.40;3.50;;;;;;;30.58;36.30;98789.19;5140930;27;20151;-38
2022/06/14 08:37:27;;;;;;;8.50;4.32;;;;;;;29.75;37.73;98787.53;5104201;27;20460;-39
2022/06/14 08:39:57;;;;;;;8.52;4.70;;;;;;;31.09;36.01;98771.53;5123617;27;20059;-39
2022/06/14 08:42:32;;;;;;;6.80;3.90;;;;;;;32.51;34.33;98787.81;5122014;27;20058;-39
2022/06/14 08:44:57;;;;;;;9.27;4.20;;;;;;;31.92;34.92;98778.13;5120954;27;20042;-39
2022/06/14 08:47:29;;;;;;;7.55;5.05;;;;;;;30.67;36.23;98759.28;5121531;27;20035;-39
2022/06/14 08:50:10;;;;;;;7.53;4.47;;;;;;;31.16;36.26;98770.72;5129965;27;20498;-39
2022/06/14 08:53:08;;;;;;;4.82;4.05;;;;;;;31.90;34.18;98766.72;5128760;27;20130;-39
2022/06/14 08:55:37;;;;;;;7.63;4.13;;;;;;;30.75;35.90;98766.31;5130417;27;20475;-44
2022/06/14 08:58:21;;;;;;;8.18;4.00;;;;;;;30.11;37.24;98771.25;5123878;27;20464;-38
2022/06/14 09:01:00;;;;;;;6.20;4.65;;;;;;;29.81;37.95;98771.50;5131658;27;20051;-39
2022/06/14 09:03:48;;;;;;;8.48;4.30;;;;;;;29.28;38.75;98775.63;5112585;27;21350;-38
2022/06/14 09:06:38;;;;;;;7.03;3.65;;;;;;;28.62;38.90;98766.16;5121542;27;20035;-39
2022/06/14 09:09:42;;;;;;;6.95;4.15;;;;;;;28.32;40.15;98759.22;5126793;27;20112;-38
2022/06/14 09:12:32;;;;;;;8.40;5.00;;;;;;;29.00;39.79;98761.38;5120672;27;20046;-38
2022/06/14 09:15:05;;;;;;;4.70;4.25;;;;;;;31.69;35.38;98758.09;5122263;27;20039;-38
2022/06/14 09:17:38;;;;;;;4.85;4.03;;;;;;;33.26;31.50;98761.06;5107419;28;20043;-38
2022/06/14 09:20:10;;;;;;;7.88;4.32;;;;;;;34.72;29.20;98760.03;5114553;27;20138;-42
2022/06/14 09:22:42;;;;;;;3.85;3.42;;;;;;;33.86;30.79;98751.38;5137004;27;20039;-38
2022/06/14 09:25:07;;;;;;;5.55;3.30;;;;;;;32.50;32.68;98745.81;5112170;28;20070;-38
2022/06/14 09:28:00;;;;;;;3.55;3.00;;;;;;;31.57;33.69;98744.47;5111883;28;20078;-38
2022/06/14 09:30:50;;;;;;;3.80;3.10;;;;;;;30.30;34.01;98735.66;5096590;27;20043;-39
2022/06/14 09:33:35;;;;;;;6.55;3.35;;;;;;;29.48;35.99;98722.22;5118850;27;20035;-38
2022/06/14 09:36:38;;;;;;;6.70;3.72;;;;;;;30.08;35.53;98715.34;5110556;28;20513;-39
2022/06/14 09:39:07;;;;;;;5.50;3.63;;;;;;;30.17;35.53;98711.47;5112772;27;20129;-39
2022/06/14 09:42:01;;;;;;;4.30;3.90;;;;;;;31.14;34.34;98718.03;5111430;28;20063;-38
2022/06/14 09:44:53;;;;;;;4.45;3.63;;;;;;;33.31;30.81;98707.31;5091506;28;20103;-39
2022/06/14 09:47:58;;;;;;;8.10;3.53;;;;;;;32.52;31.93;98703.34;5111264;28;20112;-40
2022/06/14 09:50:45;;;;;;;5.60;3.40;;;;;;;31.23;33.28;98691.81;5110078;28;20040;-39
2022/06/14 09:53:36;;;;;;;6.55;3.50;;;;;;;30.41;34.78;98697.50;5111440;28;20055;-38
2022/06/14 09:56:15;;;;;;;4.07;3.53;;;;;;;29.53;35.90;98698.38;5129710;27;20808;-38
2022/06/14 09:59:09;;;;;;;6.28;3.42;;;;;;;29.19;36.80;98696.47;5129473;27;20043;-38
2022/06/14 10:01:50;;;;;;;4.70;3.95;;;;;;;29.25;37.29;98695.72;5131194;27;20043;-38
2022/06/14 10:04:37;;;;;;;7.50;4.50;;;;;;;31.96;33.06;98689.78;5121129;27;20039;-38
2022/06/14 10:07:11;;;;;;;3.95;3.65;;;;;;;33.51;30.00;98689.91;5122410;27;20046;-38
2022/06/14 10:10:02;;;;;;;4.13;3.72;;;;;;;34.31;28.98;98682.53;5122638;27;20035;-38
2022/06/14 10:12:44;;;;;;;5.28;4.03;;;;;;;34.99;27.70;98689.41;5111121;27;20146;-37
2022/06/14 10:15:14;;;;;;;6.00;4.22;;;;;;;35.75;27.15;98685.75;5110830;28;20036;-38
2022/06/14 10:18:36;;;;;;;3.88;3.50;;;;;;;35.06;27.08;98676.59;5110489;27;20115;-39
2022/06/14 10:21:23;;;;;;;7.53;4.32;;;;;;;33.97;28.71;98672.38;5086269;28;20043;-39
2022/06/14 10:24:18;;;;;;;5.10;3.97;;;;;;;34.90;27.89;98670.00;5076919;28;20116;-38
2022/06/14 10:29:30;;;;;;;4.90;3.42;;;;;;;32.70;30.38;98667.66;5088412;28;20048;-37
2022/06/14 10:32:17;;;;;;;4.13;3.08;;;;;;;32.48;30.88;98661.78;5087912;28;20040;-43
2022/06/14 10:34:49;;;;;;;4.75;2.72;;;;;;;31.67;31.33;98655.34;5087171;28;20503;-39
2022/06/14 10:37:34;;;;;;;4.43;3.38;;;;;;;31.27;32.03;98655.44;5088020;28;20024;-38
2022/06/14 10:40:17;;;;;;;6.55;3.38;;;;;;;33.56;29.10;98656.88;5088096;28;20057;-38
2022/06/14 10:42:52;;;;;;;4.65;3.70;;;;;;;35.46;26.56;98637.00;5084514;28;20531;-39
2022/06/14 10:45:25;;;;;;;3.67;3.38;;;;;;;36.85;25.24;98657.25;5087025;28;20052;-39
2022/06/14 10:48:23;;;;;;;4.18;3.60;;;;;;;37.10;24.28;98621.63;5052012;28;20128;-38
2022/06/14 10:51:18;;;;;;;3.78;3.47;;;;;;;37.33;23.83;98650.38;5089018;28;20069;-38
2022/06/14 10:53:58;;;;;;;5.47;3.60;;;;;;;37.28;23.82;98637.56;5121383;27;20426;-39
2022/06/14 10:56:43;;;;;;;6.07;3.53;;;;;;;38.47;22.51;98632.22;5118292;28;20043;-39
2022/06/14 10:59:23;;;;;;;6.40;3.75;;;;;;;38.52;22.25;98634.19;5109235;28;20082;-41
2022/06/14 11:01:59;;;;;;;4.00;3.55;;;;;;;38.92;21.37;98642.66;5122150;28;20031;-40
2022/06/14 11:04:32;;;;;;;6.20;3.80;;;;;;;38.53;21.60;98624.94;5128737;28;20058;-38
2022/06/14 11:07:34;;;;;;;5.13;3.38;;;;;;;38.79;21.24;98625.94;5127226;28;20163;-38
2022/06/14 11:10:19;;;;;;;4.28;3.97;;;;;;;39.70;20.27;98634.66;5130751;27;20529;-38
2022/06/14 11:12:51;;;;;;;4.47;3.55;;;;;;;39.28;19.56;98621.13;5109132;28;20050;-38
2022/06/14 11:15:41;;;;;;;4.15;3.50;;;;;;;40.16;18.94;98608.41;5108992;28;20031;-38
2022/06/14 11:18:19;;;;;;;3.85;2.80;;;;;;;38.37;21.27;98601.41;5109121;28;20126;-39
2022/06/14 11:20:53;;;;;;;4.22;3.58;;;;;;;38.07;21.66;98608.19;5110343;28;20043;-39
2022/06/14 11:23:24;;;;;;;5.25;3.85;;;;;;;38.80;21.20;98593.06;5129539;28;20050;-39
2022/06/14 11:25:58;;;;;;;4.32;2.83;;;;;;;38.80;20.60;98605.84;5129668;28;20506;-39
2022/06/14 11:28:36;;;;;;;4.38;3.58;;;;;;;37.92;21.27;98605.28;5125216;27;20564;-41
2022/06/14 11:31:33;;;;;;;5.32;3.20;;;;;;;37.38;21.99;98600.81;5119858;28;20070;-37
2022/06/14 11:34:27;;;;;;;3.65;2.47;;;;;;;37.56;21.89;98595.13;5114131;28;20596;-39
2022/06/14 11:37:26;;;;;;;4.15;2.80;;;;;;;36.19;22.46;98603.84;5112362;28;20046;-40
2022/06/14 11:39:59;;;;;;;3.63;2.70;;;;;;;35.01;23.90;98600.84;5120625;28;20057;-39
2022/06/14 11:42:51;;;;;;;3.75;2.58;;;;;;;33.63;25.15;98590.22;5127006;28;20145;-38
2022/06/14 11:45:44;;;;;;;6.93;2.67;;;;;;;34.31;24.31;98587.25;5125888;28;20115;-38
2022/06/14 11:48:19;;;;;;;4.70;2.70;;;;;;;33.19;25.60;98585.97;5110949;28;20067;-39
2022/06/14 11:50:54;;;;;;;3.92;3.00;;;;;;;33.73;25.66;98582.44;5136914;27;20047;-39
2022/06/14 11:53:44;;;;;;;3.72;2.97;;;;;;;33.23;26.36;98584.50;5123214;27;20035;-38
2022/06/14 11:56:42;;;;;;;2.88;2.65;;;;;;;31.92;28.00;98583.69;5124849;27;20043;-37
2022/06/14 11:59:13;;;;;;;4.43;3.20;;;;;;;31.65;28.75;98576.81;5124083;27;20431;-38
2022/06/14 12:01:42;;;;;;;6.95;3.33;;;;;;;33.35;26.71;98577.31;5122659;27;20085;-39
2022/06/14 12:04:38;;;;;;;3.10;2.80;;;;;;;33.68;26.03;98573.38;5132448;27;20538;-38
2022/06/14 12:07:25;;;;;;;4.68;2.92;;;;;;;32.89;26.84;98577.78;5147070;27;20070;-40
2022/06/14 12:10:28;;;;;;;3.75;2.58;;;;;;;32.15;27.78;98577.75;5146913;27;20062;-40
2022/06/14 12:13:23;;;;;;;4.10;2.80;;;;;;;32.05;27.88;98586.28;5113783;28;20350;-49
2022/06/14 12:15:55;;;;;;;4.78;2.63;;;;;;;31.44;28.68;98577.91;5094553;28;20047;-46
2022/06/14 12:18:22;;;;;;;2.67;2.25;;;;;;;31.03;29.03;98571.03;5110290;28;20506;-48
2022/06/14 12:20:53;;;;;;;3.80;2.47;;;;;;;31.36;28.95;98562.00;5113064;28;20092;-46